Time;durP1;ratioP1;P1;durP2;ratioP2;P2;SDS_P1;SDS_P2;PMS_P1;PMS_P2;Temp;Humidity;BMP_temperature;BMP_pressure;BME280_temperature;BME280_humidity;BME280_pressure;Samples;Min_cycle;Max_cycle;Signal;HPM_P1;HPM_P2
2022/10/11 00:00:25;;;;;;;43.93;33.00;;;15.40;99.90;;;;;;5137396;27;20194;-72
2022/10/11 00:02:51;;;;;;;47.37;33.90;;;15.50;99.90;;;;;;5118933;27;20411;-74
2022/10/11 00:05:16;;;;;;;46.77;34.53;;;15.50;99.90;;;;;;5137171;27;20201;-72
2022/10/11 00:07:42;;;;;;;48.83;35.00;;;15.50;99.90;;;;;;5137385;27;20254;-74
2022/10/11 00:10:08;;;;;;;46.07;34.60;;;15.50;99.90;;;;;;5136985;27;20479;-74
2022/10/11 00:12:35;;;;;;;46.07;35.03;;;15.50;99.90;;;;;;5118677;27;20664;-72
2022/10/11 00:15:01;;;;;;;52.77;35.13;;;15.50;99.90;;;;;;5118488;27;20870;-74
2022/10/11 00:17:26;;;;;;;45.70;32.40;;;15.40;99.90;;;;;;5136923;27;20438;-72
2022/10/11 00:19:52;;;;;;;44.70;34.47;;;15.50;99.90;;;;;;5118539;27;20466;-72
2022/10/11 00:22:18;;;;;;;45.70;33.17;;;15.40;99.90;;;;;;5118259;27;20187;-71
2022/10/11 00:24:43;;;;;;;48.53;34.60;;;15.40;99.90;;;;;;5136862;27;20203;-72
2022/10/11 00:27:09;;;;;;;48.43;34.47;;;15.40;99.90;;;;;;5136851;27;20174;-71
2022/10/11 00:29:37;;;;;;;47.50;35.20;;;15.40;99.90;;;;;;5118342;27;20714;-72
2022/10/11 00:32:03;;;;;;;43.83;34.37;;;15.40;99.90;;;;;;5136636;27;20163;-74
2022/10/11 00:34:28;;;;;;;47.00;35.90;;;15.40;99.90;;;;;;5136663;27;20394;-74
2022/10/11 00:36:54;;;;;;;46.50;33.50;;;15.40;99.90;;;;;;5136528;27;20506;-72
2022/10/11 00:39:20;;;;;;;41.97;33.03;;;15.40;99.90;;;;;;5136568;27;20256;-74
2022/10/11 00:41:48;;;;;;;45.43;34.70;;;15.40;99.90;;;;;;5136537;27;20643;-74
2022/10/11 00:44:15;;;;;;;45.50;34.00;;;15.40;99.90;;;;;;5117947;27;20464;-72
2022/10/11 00:46:44;;;;;;;46.10;34.13;;;15.40;99.90;;;;;;5136541;27;20899;-74
2022/10/11 00:49:35;;;;;;;45.00;33.17;;;15.40;99.90;;;;;;5118007;27;20482;-71
2022/10/11 00:52:22;;;;;;;50.10;34.20;;;15.40;99.90;;;;;;5117999;27;20929;-72
2022/10/11 00:54:49;;;;;;;44.60;33.53;;;15.40;99.90;;;;;;5116221;27;20442;-74
2022/10/11 00:57:23;;;;;;;49.77;35.37;;;15.40;99.90;;;;;;5136213;27;20423;-74
2022/10/11 00:59:53;;;;;;;46.60;33.43;;;15.40;99.90;;;;;;5136163;27;20407;-72
2022/10/11 01:02:19;;;;;;;50.20;33.70;;;15.30;99.90;;;;;;5117738;27;20949;-74
2022/10/11 01:04:45;;;;;;;48.43;35.20;;;15.30;99.90;;;;;;5117495;27;20433;-72
2022/10/11 01:07:11;;;;;;;43.10;33.80;;;15.30;99.90;;;;;;5117612;27;20419;-74
2022/10/11 01:09:37;;;;;;;43.43;33.00;;;15.30;99.90;;;;;;5135816;27;20978;-72
2022/10/11 01:12:09;;;;;;;47.53;35.03;;;15.30;99.90;;;;;;5135948;27;20407;-74
2022/10/11 01:15:04;;;;;;;46.57;36.10;;;15.30;99.90;;;;;;5135856;27;20191;-74
2022/10/11 01:17:50;;;;;;;43.60;32.67;;;15.30;99.90;;;;;;5135927;27;20408;-74
2022/10/11 01:20:43;;;;;;;43.93;31.87;;;15.20;99.90;;;;;;5135762;27;20433;-74
2022/10/11 01:23:26;;;;;;;40.77;31.00;;;15.20;99.90;;;;;;5135652;27;20566;-72
2022/10/11 01:26:16;;;;;;;49.53;33.80;;;15.20;99.90;;;;;;5117167;27;20447;-72
2022/10/11 01:29:01;;;;;;;47.23;32.83;;;15.20;99.90;;;;;;5117372;27;20474;-71
2022/10/11 01:31:36;;;;;;;40.70;31.07;;;15.20;99.90;;;;;;5135663;27;20942;-74
2022/10/11 01:34:12;;;;;;;43.83;31.77;;;15.20;99.90;;;;;;5136041;27;20435;-74
2022/10/11 01:36:47;;;;;;;43.20;31.67;;;15.20;99.90;;;;;;5135520;27;20775;-71
2022/10/11 01:39:24;;;;;;;41.47;32.33;;;15.20;99.90;;;;;;5135323;27;20418;-72
2022/10/11 01:41:54;;;;;;;41.40;31.47;;;15.20;99.90;;;;;;5135398;27;20388;-74
2022/10/11 01:44:24;;;;;;;40.70;31.03;;;15.20;99.90;;;;;;5135441;27;20415;-72
2022/10/11 01:46:51;;;;;;;40.70;29.90;;;15.10;99.90;;;;;;5116809;27;20946;-74
2022/10/11 01:49:17;;;;;;;41.27;30.97;;;15.10;99.90;;;;;;5116553;27;20492;-74
2022/10/11 01:51:49;;;;;;;38.97;29.50;;;15.10;99.90;;;;;;5116762;27;20404;-72
2022/10/11 01:54:30;;;;;;;41.13;29.30;;;15.10;99.90;;;;;;5116844;27;20627;-72
2022/10/11 01:57:04;;;;;;;39.00;27.90;;;15.10;99.90;;;;;;5116644;27;20445;-72
2022/10/11 01:59:40;;;;;;;39.17;26.03;;;15.10;99.90;;;;;;5135296;27;20826;-74
2022/10/11 02:02:24;;;;;;;40.07;27.13;;;15.10;99.90;;;;;;5116542;27;20466;-74
2022/10/11 02:05:02;;;;;;;30.30;23.90;;;15.10;99.90;;;;;;5134559;27;20564;-72
2022/10/11 02:07:39;;;;;;;36.23;27.37;;;15.10;99.90;;;;;;5135238;27;20903;-72
2022/10/11 02:10:16;;;;;;;35.60;25.40;;;15.10;99.90;;;;;;5134888;27;20466;-72
2022/10/11 02:12:50;;;;;;;37.20;26.43;;;15.10;99.90;;;;;;5116564;27;20439;-72
2022/10/11 02:15:17;;;;;;;40.07;28.33;;;15.10;99.90;;;;;;5116446;27;20800;-73
2022/10/11 02:17:51;;;;;;;36.60;26.87;;;15.10;99.90;;;;;;5116460;27;20394;-74
2022/10/11 02:20:19;;;;;;;32.50;26.50;;;15.10;99.90;;;;;;5116249;27;20438;-72
2022/10/11 02:22:48;;;;;;;28.53;22.97;;;15.10;99.90;;;;;;5116115;28;20561;-72
2022/10/11 02:25:20;;;;;;;29.97;22.00;;;15.10;99.90;;;;;;5134634;27;20884;-72
2022/10/11 02:27:49;;;;;;;31.97;23.50;;;15.10;99.90;;;;;;5135014;27;20461;-74
2022/10/11 02:30:15;;;;;;;30.67;23.93;;;15.10;99.90;;;;;;5134586;27;20455;-72
2022/10/11 02:32:43;;;;;;;31.70;23.07;;;15.10;99.90;;;;;;5134594;28;20784;-72
2022/10/11 02:35:10;;;;;;;30.13;23.50;;;15.10;99.90;;;;;;5134512;27;20437;-71
2022/10/11 02:37:52;;;;;;;29.17;22.07;;;15.10;99.90;;;;;;5134825;28;20419;-72
2022/10/11 02:40:32;;;;;;;28.90;22.00;;;15.10;99.90;;;;;;5134524;27;20423;-72
2022/10/11 02:43:16;;;;;;;31.30;23.80;;;15.10;99.90;;;;;;5134881;28;20457;-74
2022/10/11 02:45:47;;;;;;;28.83;22.57;;;15.10;99.90;;;;;;5116248;28;20802;-74
2022/10/11 02:48:14;;;;;;;31.60;24.10;;;15.10;99.90;;;;;;5134757;28;20939;-72
2022/10/11 02:50:41;;;;;;;30.57;23.00;;;15.10;99.90;;;;;;5134515;27;20952;-74
2022/10/11 02:53:07;;;;;;;28.60;20.73;;;15.10;99.90;;;;;;5134746;28;20403;-72
2022/10/11 02:55:33;;;;;;;30.13;21.57;;;15.10;99.90;;;;;;5134338;27;20430;-72
2022/10/11 02:57:59;;;;;;;32.07;23.90;;;15.10;99.90;;;;;;5134731;28;20895;-72
2022/10/11 03:00:25;;;;;;;28.70;22.20;;;15.10;99.90;;;;;;5134487;27;20468;-72
2022/10/11 03:02:50;;;;;;;26.87;20.33;;;15.10;99.90;;;;;;5134591;28;20560;-72
2022/10/11 03:05:16;;;;;;;23.70;19.73;;;15.10;99.90;;;;;;5115912;28;20741;-71
2022/10/11 03:07:42;;;;;;;28.70;22.20;;;15.10;99.90;;;;;;5116035;28;20183;-74
2022/10/11 03:10:08;;;;;;;29.90;22.40;;;15.10;99.90;;;;;;5115731;28;20214;-74
2022/10/11 03:12:33;;;;;;;30.03;21.87;;;15.10;99.90;;;;;;5134446;28;20179;-74
2022/10/11 03:14:59;;;;;;;32.00;22.07;;;15.10;99.90;;;;;;5134229;27;20792;-71
2022/10/11 03:17:26;;;;;;;30.47;22.00;;;15.10;99.90;;;;;;5135489;27;20620;-72
2022/10/11 03:19:52;;;;;;;25.17;21.20;;;15.10;99.90;;;;;;5119753;27;20195;-71
2022/10/11 03:22:18;;;;;;;30.07;22.40;;;15.10;99.90;;;;;;5137939;27;20427;-74
2022/10/11 03:24:43;;;;;;;27.80;22.47;;;15.10;99.90;;;;;;5138070;27;20431;-72
2022/10/11 03:27:09;;;;;;;30.33;24.10;;;15.10;99.90;;;;;;5138128;27;20175;-72
2022/10/11 03:29:35;;;;;;;26.37;21.63;;;15.10;99.90;;;;;;5137892;27;20459;-74
2022/10/11 03:32:00;;;;;;;28.27;23.73;;;15.00;99.90;;;;;;5137912;27;20175;-74
2022/10/11 03:34:26;;;;;;;29.33;20.03;;;15.10;99.90;;;;;;5137862;27;20575;-72
2022/10/11 03:36:51;;;;;;;26.83;22.80;;;15.10;99.90;;;;;;5137770;27;20533;-74
2022/10/11 03:39:17;;;;;;;32.03;23.10;;;15.10;99.90;;;;;;5137699;27;20212;-74
2022/10/11 03:41:43;;;;;;;26.67;19.80;;;15.00;99.90;;;;;;5137777;27;20167;-72
2022/10/11 03:44:08;;;;;;;29.00;22.10;;;15.00;99.90;;;;;;5138135;27;20642;-71
2022/10/11 03:46:34;;;;;;;27.40;21.70;;;15.00;99.90;;;;;;5137686;27;20586;-73
2022/10/11 03:49:00;;;;;;;26.37;20.13;;;15.00;99.90;;;;;;5136451;27;20313;-72
2022/10/11 03:51:25;;;;;;;26.87;19.80;;;14.90;99.90;;;;;;5135011;27;20199;-71
2022/10/11 03:53:51;;;;;;;24.23;20.10;;;14.90;99.90;;;;;;5137166;27;20175;-72
2022/10/11 03:56:16;;;;;;;29.13;20.77;;;14.90;99.90;;;;;;5118829;27;20205;-73
2022/10/11 03:58:42;;;;;;;26.77;19.50;;;14.90;99.90;;;;;;5137731;27;20207;-72
2022/10/11 04:01:07;;;;;;;26.63;21.77;;;14.90;99.90;;;;;;5134493;27;20203;-71
2022/10/11 04:03:33;;;;;;;29.80;19.43;;;14.80;99.90;;;;;;5134867;27;20183;-72
2022/10/11 04:05:59;;;;;;;26.77;20.17;;;14.80;99.90;;;;;;5136027;27;20221;-74
2022/10/11 04:08:25;;;;;;;25.00;19.63;;;14.80;99.90;;;;;;5137046;27;20470;-72
2022/10/11 04:10:50;;;;;;;25.80;19.07;;;14.80;99.90;;;;;;5137165;27;20591;-72
2022/10/11 04:13:16;;;;;;;25.43;18.87;;;14.80;99.90;;;;;;5118708;27;20599;-74
2022/10/11 04:15:42;;;;;;;22.20;17.00;;;14.90;99.90;;;;;;5137046;27;20244;-72
2022/10/11 04:18:08;;;;;;;23.30;17.00;;;14.90;99.90;;;;;;5137294;27;20443;-74
2022/10/11 04:20:34;;;;;;;25.97;18.90;;;14.90;99.90;;;;;;5136882;27;20195;-74
2022/10/11 04:23:00;;;;;;;27.00;19.83;;;14.90;99.90;;;;;;5135605;27;20471;-74
2022/10/11 04:25:25;;;;;;;25.33;18.93;;;15.00;99.90;;;;;;5136314;27;20442;-73
2022/10/11 04:27:51;;;;;;;29.97;19.70;;;15.00;99.90;;;;;;5136739;27;20183;-72
2022/10/11 04:30:17;;;;;;;23.73;18.80;;;15.00;99.90;;;;;;5135879;27;20298;-72
2022/10/11 04:32:43;;;;;;;25.77;16.67;;;15.00;99.90;;;;;;5134599;27;20236;-74
2022/10/11 04:35:10;;;;;;;23.20;17.20;;;15.10;99.90;;;;;;5135946;27;20221;-74
2022/10/11 04:37:36;;;;;;;23.83;17.57;;;15.10;99.90;;;;;;5117815;27;20757;-72
2022/10/11 04:40:04;;;;;;;22.10;17.80;;;15.10;99.90;;;;;;5136374;27;20438;-72
2022/10/11 04:42:29;;;;;;;24.20;18.80;;;15.10;99.90;;;;;;5135057;27;20484;-74
2022/10/11 04:44:55;;;;;;;28.63;17.30;;;15.10;99.90;;;;;;5135263;27;20427;-74
2022/10/11 04:47:21;;;;;;;35.90;23.00;;;15.10;99.90;;;;;;5135142;27;20215;-75
2022/10/11 04:49:46;;;;;;;27.17;19.73;;;15.10;99.90;;;;;;5116249;27;20613;-72
2022/10/11 04:52:12;;;;;;;25.60;19.17;;;15.10;99.90;;;;;;5116246;27;20235;-72
2022/10/11 04:54:37;;;;;;;22.27;17.00;;;15.20;99.90;;;;;;5136156;27;20191;-75
2022/10/11 04:57:03;;;;;;;26.80;17.83;;;15.20;99.90;;;;;;5117597;27;20547;-74
2022/10/11 04:59:29;;;;;;;20.33;16.40;;;15.20;99.90;;;;;;5133388;27;20199;-74
2022/10/11 05:01:54;;;;;;;24.83;18.40;;;15.20;99.90;;;;;;5133558;27;20623;-74
2022/10/11 05:04:20;;;;;;;23.20;18.10;;;15.30;99.90;;;;;;5115310;27;20753;-72
2022/10/11 05:06:45;;;;;;;24.47;16.73;;;15.30;99.90;;;;;;5115260;27;20535;-72
2022/10/11 05:09:12;;;;;;;23.97;17.20;;;15.30;99.90;;;;;;5133722;27;20569;-74
2022/10/11 05:11:37;;;;;;;23.83;18.23;;;15.30;99.90;;;;;;5133863;27;20395;-74
2022/10/11 05:14:03;;;;;;;30.80;25.07;;;15.30;99.90;;;;;;5134979;27;20411;-72
2022/10/11 05:16:29;;;;;;;32.70;22.50;;;15.30;99.90;;;;;;5135226;27;20207;-74
2022/10/11 05:18:54;;;;;;;24.43;20.57;;;15.40;99.90;;;;;;5117449;27;20179;-74
2022/10/11 05:21:25;;;;;;;26.20;17.90;;;15.40;99.90;;;;;;5135752;27;20194;-72
2022/10/11 05:23:54;;;;;;;26.20;17.27;;;15.40;99.90;;;;;;5134246;27;20241;-72
2022/10/11 05:26:20;;;;;;;21.57;17.47;;;15.40;99.90;;;;;;5102823;27;20445;-72
2022/10/11 05:28:46;;;;;;;23.20;17.30;;;15.40;99.90;;;;;;5133151;27;20478;-74
2022/10/11 05:31:12;;;;;;;26.67;19.03;;;15.40;99.90;;;;;;5128115;27;20451;-71
2022/10/11 05:33:38;;;;;;;22.33;18.03;;;15.50;99.90;;;;;;5127769;27;20870;-71
2022/10/11 05:36:05;;;;;;;21.13;17.23;;;15.50;99.90;;;;;;5133291;27;20514;-74
2022/10/11 05:38:30;;;;;;;26.20;18.33;;;15.50;99.90;;;;;;5113684;27;20178;-71
2022/10/11 05:41:03;;;;;;;26.27;19.30;;;15.50;99.90;;;;;;5114171;27;20914;-74
2022/10/11 05:43:30;;;;;;;24.67;18.93;;;15.50;99.90;;;;;;5130030;27;20262;-72
2022/10/11 05:45:56;;;;;;;26.40;18.07;;;15.50;99.90;;;;;;5108319;27;20875;-72
2022/10/11 05:48:22;;;;;;;24.20;17.70;;;15.60;99.90;;;;;;5111719;27;20463;-72
2022/10/11 05:50:49;;;;;;;25.53;17.23;;;15.60;99.90;;;;;;5132071;27;20420;-74
2022/10/11 05:53:15;;;;;;;24.20;18.30;;;15.60;99.90;;;;;;5112280;27;20438;-74
2022/10/11 05:55:41;;;;;;;22.43;17.80;;;15.60;99.90;;;;;;5109800;27;20446;-74
2022/10/11 05:58:11;;;;;;;29.37;18.60;;;15.70;99.90;;;;;;5129933;27;20443;-74
2022/10/11 06:00:37;;;;;;;24.93;18.00;;;15.70;99.90;;;;;;5124401;27;20962;-71
2022/10/11 06:03:04;;;;;;;23.97;17.70;;;15.70;99.90;;;;;;5112128;27;20427;-73
2022/10/11 06:05:30;;;;;;;20.17;17.10;;;15.70;99.90;;;;;;5116370;27;20800;-74
2022/10/11 06:07:57;;;;;;;20.83;15.83;;;15.70;99.90;;;;;;5134127;27;20431;-72
2022/10/11 06:10:22;;;;;;;23.27;15.90;;;15.80;99.90;;;;;;5130963;27;20207;-75
2022/10/11 06:12:48;;;;;;;20.03;16.87;;;15.80;99.90;;;;;;5115203;27;20434;-74
2022/10/11 06:15:14;;;;;;;22.83;17.03;;;15.80;99.90;;;;;;5133810;27;20679;-74
2022/10/11 06:17:40;;;;;;;23.63;17.70;;;15.80;99.90;;;;;;5115306;27;20647;-74
2022/10/11 06:20:06;;;;;;;23.30;17.43;;;15.90;99.90;;;;;;5134184;27;20426;-72
2022/10/11 06:22:31;;;;;;;21.63;17.67;;;15.90;99.90;;;;;;5117690;27;20230;-72
2022/10/11 06:24:58;;;;;;;23.30;16.70;;;15.90;99.90;;;;;;5129552;27;20531;-72
2022/10/11 06:27:23;;;;;;;18.90;15.10;;;16.00;99.90;;;;;;5122657;27;20541;-72
2022/10/11 06:29:49;;;;;;;23.40;16.13;;;16.00;99.90;;;;;;5124627;28;20464;-74
2022/10/11 06:32:15;;;;;;;20.63;14.97;;;16.10;99.90;;;;;;5123101;28;20201;-72
2022/10/11 06:34:41;;;;;;;18.10;14.10;;;16.20;99.90;;;;;;5112112;28;20203;-76
2022/10/11 06:37:06;;;;;;;19.10;13.50;;;16.30;99.90;;;;;;5125943;28;20937;-74
2022/10/11 06:39:33;;;;;;;17.83;13.80;;;16.30;99.90;;;;;;5126085;28;20194;-72
2022/10/11 06:41:58;;;;;;;21.50;14.40;;;16.40;99.90;;;;;;5107913;28;20643;-74
2022/10/11 06:44:24;;;;;;;18.73;14.83;;;16.50;99.90;;;;;;5128687;28;20426;-74
2022/10/11 06:46:50;;;;;;;123.77;70.17;;;16.60;99.90;;;;;;5119801;28;20179;-71
2022/10/11 06:49:16;;;;;;;21.17;13.70;;;16.60;99.90;;;;;;5104200;28;20874;-74
2022/10/11 06:51:42;;;;;;;22.50;14.63;;;16.70;99.90;;;;;;5108908;27;20179;-74
2022/10/11 06:54:07;;;;;;;19.83;14.60;;;16.80;99.90;;;;;;5126707;27;21005;-72
2022/10/11 06:56:33;;;;;;;22.90;16.43;;;16.80;99.90;;;;;;5106509;27;20251;-74
2022/10/11 06:58:59;;;;;;;19.57;13.90;;;16.90;99.90;;;;;;5131189;27;20254;-72
2022/10/11 07:01:25;;;;;;;16.17;14.43;;;17.00;99.90;;;;;;5132923;27;20187;-74
2022/10/11 07:03:53;;;;;;;16.83;13.90;;;17.00;99.90;;;;;;5132403;27;20500;-74
2022/10/11 07:06:24;;;;;;;20.03;13.67;;;17.10;99.90;;;;;;5113958;27;20444;-72
2022/10/11 07:08:50;;;;;;;15.60;13.63;;;17.20;99.90;;;;;;5136637;27;20517;-75
2022/10/11 07:11:20;;;;;;;16.07;13.30;;;17.30;99.90;;;;;;5131748;27;20478;-74
2022/10/11 07:14:06;;;;;;;18.30;13.23;;;17.30;99.90;;;;;;5136092;27;20180;-74
2022/10/11 07:16:33;;;;;;;16.77;12.50;;;17.40;99.90;;;;;;5126587;27;20442;-72
2022/10/11 07:19:00;;;;;;;15.40;11.47;;;17.50;99.90;;;;;;5134569;27;20431;-72
2022/10/11 07:21:28;;;;;;;21.20;12.33;;;17.50;99.90;;;;;;5124933;27;20432;-72
2022/10/11 07:23:53;;;;;;;19.40;12.50;;;17.60;99.90;;;;;;5135938;27;20954;-72
2022/10/11 07:26:19;;;;;;;18.63;13.30;;;17.60;99.90;;;;;;5116831;27;20439;-73
2022/10/11 07:28:45;;;;;;;12.67;11.00;;;17.70;99.90;;;;;;5132322;27;20306;-72
2022/10/11 07:31:17;;;;;;;14.57;11.40;;;17.80;99.90;;;;;;5115019;27;20519;-72
2022/10/11 07:33:42;;;;;;;21.20;12.13;;;17.90;99.90;;;;;;5135234;27;20436;-72
2022/10/11 07:36:09;;;;;;;16.53;10.83;;;17.90;99.90;;;;;;5133820;27;20430;-73
2022/10/11 07:38:41;;;;;;;17.30;12.10;;;18.00;99.90;;;;;;5137696;27;20171;-73
2022/10/11 07:41:08;;;;;;;14.00;11.80;;;18.00;99.90;;;;;;5117701;27;20862;-72
2022/10/11 07:43:34;;;;;;;15.73;11.50;;;18.00;99.90;;;;;;5134632;27;20484;-74
2022/10/11 07:46:02;;;;;;;16.57;12.83;;;18.00;99.90;;;;;;5130262;27;20486;-72
2022/10/11 07:48:30;;;;;;;14.83;11.20;;;18.00;99.90;;;;;;5133008;27;20467;-72
2022/10/11 07:51:24;;;;;;;14.10;11.43;;;18.00;99.90;;;;;;5135466;27;20809;-73
2022/10/11 07:53:54;;;;;;;15.80;10.00;;;18.00;99.90;;;;;;5094235;27;20442;-73
2022/10/11 07:56:22;;;;;;;12.50;10.37;;;18.00;99.90;;;;;;5130583;27;20443;-73
2022/10/11 07:58:50;;;;;;;12.17;10.40;;;18.00;99.90;;;;;;5131802;27;20424;-73
2022/10/11 08:01:16;;;;;;;12.07;10.40;;;18.00;99.90;;;;;;5135236;27;20466;-73
2022/10/11 08:03:42;;;;;;;16.00;10.47;;;18.00;99.90;;;;;;5114992;27;20425;-73
2022/10/11 08:06:10;;;;;;;16.90;11.40;;;18.00;99.90;;;;;;5117547;27;20465;-72
2022/10/11 08:08:36;;;;;;;12.57;10.20;;;18.10;99.90;;;;;;5136273;27;20220;-72
2022/10/11 08:11:02;;;;;;;13.03;9.03;;;18.00;99.90;;;;;;5115275;27;20981;-74
2022/10/11 08:13:27;;;;;;;10.50;9.30;;;18.10;99.90;;;;;;5115437;27;20431;-72
2022/10/11 08:15:53;;;;;;;32.47;20.97;;;18.10;99.90;;;;;;5115299;27;20729;-74
2022/10/11 08:18:19;;;;;;;12.23;8.40;;;18.20;99.90;;;;;;5134786;27;20206;-74
2022/10/11 08:20:45;;;;;;;12.20;8.73;;;18.10;99.90;;;;;;5133703;27;20241;-75
2022/10/11 08:23:11;;;;;;;15.40;7.80;;;18.10;99.90;;;;;;5131918;27;20476;-72
2022/10/11 08:25:42;;;;;;;12.93;8.20;;;18.10;99.90;;;;;;5132785;27;20214;-74
2022/10/11 08:28:09;;;;;;;9.97;8.70;;;18.10;99.90;;;;;;5130183;27;20456;-72
2022/10/11 08:30:35;;;;;;;11.60;7.57;;;18.40;99.90;;;;;;5118360;27;20491;-75
2022/10/11 08:33:01;;;;;;;10.43;7.67;;;18.80;99.90;;;;;;5128066;27;20950;-72
2022/10/11 08:35:27;;;;;;;8.53;7.73;;;19.10;99.90;;;;;;5128444;27;20906;-75
2022/10/11 08:37:53;;;;;;;7.80;7.00;;;19.10;99.90;;;;;;5110078;27;20526;-72
2022/10/11 08:40:21;;;;;;;11.03;8.20;;;19.20;99.90;;;;;;5128908;27;20471;-72
2022/10/11 08:42:59;;;;;;;11.13;7.40;;;19.30;99.90;;;;;;5131214;27;20183;-72
2022/10/11 08:45:41;;;;;;;8.23;7.27;;;19.30;99.90;;;;;;5114343;27;20437;-72
2022/10/11 08:48:17;;;;;;;8.37;7.43;;;19.30;99.90;;;;;;5132960;27;20910;-76
2022/10/11 08:50:48;;;;;;;11.50;8.07;;;19.30;99.90;;;;;;5133955;27;20659;-73
2022/10/11 08:53:41;;;;;;;7.83;7.00;;;19.30;99.90;;;;;;5133971;27;20413;-75
2022/10/11 08:56:12;;;;;;;10.83;7.50;;;19.20;99.90;;;;;;5114926;27;20804;-75
2022/10/11 08:59:07;;;;;;;9.03;7.10;;;19.30;99.90;;;;;;5113349;27;20969;-75
2022/10/11 09:01:34;;;;;;;10.37;7.47;;;19.40;99.90;;;;;;5100057;27;20434;-75
2022/10/11 09:04:01;;;;;;;10.23;8.20;;;19.50;99.90;;;;;;5111733;27;20521;-74
2022/10/11 09:06:52;;;;;;;10.10;7.43;;;19.60;99.90;;;;;;5115792;27;20498;-73
2022/10/11 09:09:25;;;;;;;10.93;7.67;;;19.60;99.90;;;;;;5116362;27;20480;-72
2022/10/11 09:12:08;;;;;;;9.77;8.30;;;19.80;99.90;;;;;;5130728;27;21117;-74
2022/10/11 09:14:59;;;;;;;708.70;374.63;;;19.80;99.90;;;;;;5127361;27;20467;-73
2022/10/11 09:17:37;;;;;;;9.63;7.93;;;19.90;99.90;;;;;;5109143;27;20512;-75
2022/10/11 09:20:14;;;;;;;9.70;8.70;;;19.90;99.90;;;;;;5131608;27;20415;-75
2022/10/11 09:23:00;;;;;;;11.50;9.17;;;19.90;99.90;;;;;;5110445;28;20471;-75
2022/10/11 09:25:32;;;;;;;10.20;9.10;;;19.90;99.90;;;;;;5128644;27;20458;-72
2022/10/11 09:28:00;;;;;;;11.93;8.87;;;19.90;99.90;;;;;;5129798;27;20450;-72
2022/10/11 09:30:26;;;;;;;9.57;8.57;;;19.90;99.90;;;;;;5126760;27;20471;-72
2022/10/11 09:33:31;;;;;;;9.70;8.30;;;19.90;99.90;;;;;;5125281;27;20849;-72
2022/10/11 09:35:56;;;;;;;12.37;8.77;;;19.90;99.90;;;;;;5116938;27;20974;-75
2022/10/11 09:38:36;;;;;;;11.60;8.77;;;19.80;99.90;;;;;;5111285;27;20472;-72
2022/10/11 09:41:22;;;;;;;11.40;9.90;;;19.80;99.90;;;;;;5109151;27;20691;-72
2022/10/11 09:43:50;;;;;;;12.30;9.43;;;19.80;99.90;;;;;;5113711;27;20963;-75
2022/10/11 09:46:43;;;;;;;11.90;9.50;;;19.80;99.90;;;;;;5129640;27;20476;-73
2022/10/11 09:49:13;;;;;;;14.83;10.43;;;19.70;99.90;;;;;;5124590;27;20494;-72
2022/10/11 09:51:42;;;;;;;12.67;9.20;;;19.60;99.90;;;;;;5119719;27;20920;-75
2022/10/11 09:54:09;;;;;;;11.70;9.50;;;19.60;99.90;;;;;;5132593;27;20434;-72
2022/10/11 09:56:41;;;;;;;10.60;9.27;;;19.60;99.90;;;;;;5106795;27;20435;-74
2022/10/11 09:59:08;;;;;;;12.23;8.87;;;19.60;99.90;;;;;;5111282;27;20429;-72
2022/10/11 10:01:35;;;;;;;11.33;8.30;;;19.60;99.90;;;;;;5130237;27;20410;-73
2022/10/11 10:04:19;;;;;;;9.80;7.80;;;19.70;99.90;;;;;;5129555;27;20954;-72
2022/10/11 10:06:45;;;;;;;12.43;8.20;;;19.70;99.90;;;;;;5130688;27;20403;-75
2022/10/11 10:09:29;;;;;;;12.83;8.87;;;19.80;99.90;;;;;;5111727;27;20662;-76
2022/10/11 10:11:56;;;;;;;11.10;8.20;;;19.90;99.90;;;;;;5128669;27;20415;-72
2022/10/11 10:14:29;;;;;;;11.57;8.63;;;20.00;99.90;;;;;;5127733;27;20976;-74
2022/10/11 10:17:04;;;;;;;12.43;9.57;;;20.10;99.90;;;;;;5113580;27;20423;-72
2022/10/11 10:19:39;;;;;;;12.97;9.50;;;20.10;99.90;;;;;;5113912;27;20426;-75
2022/10/11 10:22:13;;;;;;;8.97;8.10;;;20.20;99.90;;;;;;5108897;28;20400;-74
2022/10/11 10:24:40;;;;;;;9.27;8.30;;;20.30;99.90;;;;;;5119460;28;20460;-72
2022/10/11 10:27:19;;;;;;;8.50;7.50;;;20.30;99.90;;;;;;5126118;27;20407;-72
2022/10/11 10:30:08;;;;;;;13.30;7.90;;;20.30;99.90;;;;;;5129137;27;20470;-75
2022/10/11 10:32:39;;;;;;;11.67;8.43;;;20.30;99.90;;;;;;5128073;28;20416;-74
2022/10/11 10:35:15;;;;;;;9.90;7.93;;;20.30;99.90;;;;;;5118850;28;20423;-72
2022/10/11 10:38:06;;;;;;;12.13;8.27;;;20.30;99.90;;;;;;5119602;28;20587;-72
2022/10/11 10:40:44;;;;;;;9.57;7.63;;;20.30;99.90;;;;;;5096324;28;20454;-72
2022/10/11 10:43:16;;;;;;;10.17;8.00;;;20.40;99.90;;;;;;5106669;28;21076;-72
2022/10/11 10:45:47;;;;;;;8.73;7.00;;;20.50;99.90;;;;;;5104300;28;20488;-72
2022/10/11 10:48:22;;;;;;;8.37;7.20;;;20.50;99.90;;;;;;5122011;28;20984;-73
2022/10/11 10:51:22;;;;;;;10.80;7.70;;;20.50;99.90;;;;;;5116344;28;20499;-72
2022/10/11 10:54:26;;;;;;;11.13;7.07;;;20.40;99.90;;;;;;5095982;28;20888;-72
2022/10/11 10:56:56;;;;;;;10.20;7.70;;;20.40;99.90;;;;;;5107543;28;20439;-70
2022/10/11 10:59:47;;;;;;;9.30;7.87;;;20.30;99.90;;;;;;5119934;28;20891;-70
2022/10/11 11:02:20;;;;;;;9.00;7.17;;;20.30;99.90;;;;;;5107819;28;20451;-75
2022/10/11 11:05:09;;;;;;;9.67;7.80;;;20.30;99.90;;;;;;5104871;28;20534;-75
2022/10/11 11:07:53;;;;;;;11.07;8.00;;;20.40;99.90;;;;;;5116205;28;20431;-74
2022/10/11 11:10:29;;;;;;;8.43;7.60;;;20.40;99.90;;;;;;5122501;28;20466;-75
2022/10/11 11:13:31;;;;;;;13.47;8.53;;;20.50;99.90;;;;;;5126865;28;20431;-71
2022/10/11 11:16:14;;;;;;;8.57;7.27;;;20.50;99.90;;;;;;5121658;28;20446;-70
2022/10/11 11:18:50;;;;;;;9.30;7.83;;;20.50;99.90;;;;;;5126303;28;20431;-73
2022/10/11 11:21:27;;;;;;;8.73;7.60;;;20.50;99.90;;;;;;5123927;28;20434;-70
2022/10/11 11:24:19;;;;;;;12.10;7.67;;;20.60;99.90;;;;;;5127312;28;20556;-71
2022/10/11 11:27:25;;;;;;;12.73;8.37;;;20.60;99.90;;;;;;5120366;28;20443;-71
2022/10/11 11:30:09;;;;;;;12.70;8.57;;;20.60;99.90;;;;;;5124576;27;20478;-71
2022/10/11 11:33:01;;;;;;;9.43;7.57;;;20.60;99.90;;;;;;5121455;28;21000;-70
2022/10/11 11:35:30;;;;;;;12.00;7.90;;;20.70;99.90;;;;;;5122003;27;20546;-72
2022/10/11 11:38:37;;;;;;;12.83;8.13;;;20.60;99.90;;;;;;5121070;27;20432;-73
2022/10/11 11:41:07;;;;;;;9.67;8.20;;;20.60;99.90;;;;;;5111204;27;21009;-73
2022/10/11 11:43:46;;;;;;;9.40;8.50;;;20.60;99.90;;;;;;5124745;27;20430;-72
2022/10/11 11:46:16;;;;;;;13.37;10.10;;;20.60;99.90;;;;;;5101120;27;20724;-72
2022/10/11 11:48:43;;;;;;;13.93;9.50;;;20.60;99.90;;;;;;5119544;27;20559;-70
2022/10/11 11:51:17;;;;;;;18.00;11.73;;;20.50;99.90;;;;;;5109856;27;20439;-71
2022/10/11 11:53:43;;;;;;;13.27;10.30;;;20.50;99.90;;;;;;5126833;27;20427;-72
2022/10/11 11:56:18;;;;;;;10.97;8.67;;;20.50;99.90;;;;;;5111692;27;20431;-73
2022/10/11 11:58:54;;;;;;;11.97;9.60;;;20.50;99.90;;;;;;5134972;27;20919;-74
2022/10/11 12:01:26;;;;;;;9.83;8.53;;;20.50;99.90;;;;;;5134473;27;20577;-72
2022/10/11 12:03:55;;;;;;;9.83;8.83;;;20.50;99.90;;;;;;5135338;27;20521;-71
2022/10/11 12:06:34;;;;;;;10.83;8.67;;;20.50;99.90;;;;;;5103478;27;20947;-72
2022/10/11 12:09:08;;;;;;;9.87;8.70;;;20.50;99.90;;;;;;5124719;27;20562;-73
2022/10/11 12:11:36;;;;;;;9.93;8.93;;;20.50;99.90;;;;;;5125222;27;20403;-74
2022/10/11 12:14:23;;;;;;;10.37;8.20;;;20.50;99.90;;;;;;5122599;27;20423;-76
2022/10/11 12:17:11;;;;;;;10.77;8.73;;;20.50;99.90;;;;;;5111151;28;20492;-76
2022/10/11 12:19:38;;;;;;;9.77;8.40;;;20.60;99.90;;;;;;5108576;27;20451;-73
2022/10/11 12:22:26;;;;;;;9.57;8.57;;;20.60;99.90;;;;;;5132793;27;20911;-71
2022/10/11 12:25:19;;;;;;;12.00;8.20;;;20.60;99.90;;;;;;5113501;27;20512;-69
2022/10/11 12:27:49;;;;;;;11.57;8.70;;;20.60;99.90;;;;;;5117304;27;20431;-76
2022/10/11 12:30:45;;;;;;;9.80;7.90;;;20.60;99.90;;;;;;5123851;27;20481;-74
2022/10/11 12:33:24;;;;;;;13.17;9.03;;;20.60;99.90;;;;;;5104527;27;20432;-75
2022/10/11 12:36:00;;;;;;;10.57;9.40;;;20.60;99.90;;;;;;5114700;27;20426;-74
2022/10/11 12:38:30;;;;;;;9.70;8.70;;;20.60;99.90;;;;;;5130599;27;20431;-70
2022/10/11 12:41:37;;;;;;;9.60;8.30;;;20.50;99.90;;;;;;5091155;28;20440;-71
2022/10/11 12:44:13;;;;;;;10.73;9.13;;;20.50;99.90;;;;;;5089895;28;20436;-74
2022/10/11 12:46:42;;;;;;;10.03;8.93;;;20.50;99.90;;;;;;5114121;27;20403;-71
2022/10/11 12:49:29;;;;;;;12.50;9.17;;;20.60;99.90;;;;;;5128755;27;20471;-72
2022/10/11 12:52:15;;;;;;;13.03;9.10;;;20.60;99.90;;;;;;5128377;27;20998;-72